Unicom:                    122.8

AWOS:                  118.275

Elevation           1458’ MSL

TPA:                   2500’ MSL

06/24:         5003’ L   75’ W

PAPI:       06/Left     24/Left

(Operate lights on unicom freq.)

Traffic Pattern: Left

Beacon: Sunset to Sunrise

Windsock: yes, lighted

Segmented Circle: No

 

Cleveland Center: 126.72/291.65

FSS: Altoona

[Source: ADDS]
METAR
KFKL 182356Z AUTO 01003KT 10SM CLR 20/18 A3018 RMK AO2 SLP214 6//// T02000178 10272 20200 53010 =
KFKL 182320Z 1900/1924 35005KT P6SM SKC FM190800 00000KT 2SM BR SCT003 TEMPO 1908/1912 1SM BR BKN003 FM191300 07005KT P6SM SKC
TAF
KFKL 182320Z 1900/1924 35005KT P6SM SKC FM190800 00000KT 2SM BR SCT003 TEMPO 1908/1912 1SM BR BKN003 FM191300 07005KT P6SM SKC =
[Source: ADDS]
METAR
KDUJ 182353Z AUTO 36003KT 10SM FEW045 22/18 A3015 RMK AO2 SLP199 T02220178 10267 20222 53008 =
KDUJ 182320Z 1900/1924 34005KT P6SM SKC FM190900 00000KT 2SM BR SCT005 TEMPO 1909/1912 3/4SM BR VV005 FM191300 06005KT P6SM SKC
TAF
KDUJ 182320Z 1900/1924 34005KT P6SM SKC FM190900 00000KT 2SM BR SCT005 TEMPO 1909/1912 3/4SM BR VV005 FM191300 06005KT P6SM SKC =

Airport Information. 

Runway Length: 5003ft x 75ft

Runways 6/24

Traffic Pattern: Left

PAPI’s: 2 light PAPI on left of both 6/24

TPA: 2500 msl

Field Elevation: 1458 msl

Surface: Asphalt

Beacon: Operates Sunset-Sunrise

Pilot Controlled Lighting:  yes 122.8

 

Fuel:

Jet-A w/prist

100 LL

Center point fueling available upon request.

 

Unicom Frequency: 122.8

AWOS Frequency: 118.27  (814-227-2899)

 

Cleveland Center: 126.72 (440-774-0442)

 

GPS Approach Plates for 6/24 download here: http://www.airnav.com/airport/KAXQ

[Source: ADDS]
METAR
KFKL 182356Z AUTO 01003KT 10SM CLR 20/18 A3018 RMK AO2 SLP214 6//// T02000178 10272 20200 53010 =
KFKL 182320Z 1900/1924 35005KT P6SM SKC FM190800 00000KT 2SM BR SCT003 TEMPO 1908/1912 1SM BR BKN003 FM191300 07005KT P6SM SKC
TAF
KFKL 182320Z 1900/1924 35005KT P6SM SKC FM190800 00000KT 2SM BR SCT003 TEMPO 1908/1912 1SM BR BKN003 FM191300 07005KT P6SM SKC =
[Source: ADDS]
METAR
KDUJ 182353Z AUTO 36003KT 10SM FEW045 22/18 A3015 RMK AO2 SLP199 T02220178 10267 20222 53008 =
KDUJ 182320Z 1900/1924 34005KT P6SM SKC FM190900 00000KT 2SM BR SCT005 TEMPO 1909/1912 3/4SM BR VV005 FM191300 06005KT P6SM SKC
TAF
KDUJ 182320Z 1900/1924 34005KT P6SM SKC FM190900 00000KT 2SM BR SCT005 TEMPO 1909/1912 3/4SM BR VV005 FM191300 06005KT P6SM SKC =